Time;durP1;ratioP1;P1;durP2;ratioP2;P2;SDS_P1;SDS_P2;PMS_P1;PMS_P2;Temp;Humidity;BMP_temperature;BMP_pressure;BME280_temperature;BME280_humidity;BME280_pressure;Samples;Min_cycle;Max_cycle;Signal;HPM_P1;HPM_P2
2022/11/05 00:09:56;;;;;;;2.08;1.40;;;9.90;99.90;;;;;;6092552;23;20215;-75
2022/11/05 00:17:52;;;;;;;2.25;1.35;;;9.90;99.90;;;;;;6092058;23;20266;-75
2022/11/05 00:20:21;;;;;;;2.40;1.35;;;9.90;99.90;;;;;;6092351;23;20199;-75
2022/11/05 00:25:33;;;;;;;3.13;1.70;;;10.00;99.90;;;;;;6092479;23;20278;-75
2022/11/05 00:28:02;;;;;;;2.58;1.50;;;9.90;99.90;;;;;;6091017;23;20198;-75
2022/11/05 00:30:30;;;;;;;1.95;1.75;;;9.90;99.90;;;;;;6092179;23;20191;-75
2022/11/05 00:33:02;;;;;;;1.45;1.33;;;9.90;99.90;;;;;;6092200;23;20651;-75
2022/11/05 00:35:30;;;;;;;1.70;1.60;;;9.90;99.90;;;;;;6092261;23;20534;-75
2022/11/05 00:37:59;;;;;;;1.80;1.70;;;9.90;99.90;;;;;;6092522;23;20236;-75
2022/11/05 00:40:26;;;;;;;2.00;1.80;;;9.90;99.90;;;;;;6092344;23;20226;-75
2022/11/05 00:45:46;;;;;;;3.25;1.90;;;9.90;99.90;;;;;;6023756;23;20206;-75
2022/11/05 00:50:59;;;;;;;2.65;2.00;;;9.80;99.90;;;;;;6092347;23;20298;-75
2022/11/05 00:53:26;;;;;;;4.53;2.30;;;9.80;99.90;;;;;;6092327;23;20225;-76
2022/11/05 00:55:54;;;;;;;3.80;2.50;;;9.80;99.90;;;;;;6090744;23;20195;-75
2022/11/05 00:58:23;;;;;;;2.22;2.10;;;9.80;99.90;;;;;;6092764;23;20244;-76
2022/11/05 01:00:53;;;;;;;3.47;2.75;;;9.80;99.90;;;;;;6090672;23;20199;-75
2022/11/05 01:03:22;;;;;;;2.95;2.70;;;9.80;99.90;;;;;;6092236;23;20338;-75
2022/11/05 01:05:52;;;;;;;2.60;2.40;;;9.80;99.90;;;;;;6092350;23;20230;-75
2022/11/05 01:08:21;;;;;;;3.00;2.80;;;9.80;99.90;;;;;;6092328;23;20194;-75
2022/11/05 01:10:50;;;;;;;2.92;2.70;;;9.70;99.90;;;;;;6092699;23;20238;-75
2022/11/05 01:13:20;;;;;;;3.28;2.97;;;9.70;99.90;;;;;;6092848;23;20194;-75
2022/11/05 01:15:49;;;;;;;3.08;2.80;;;9.70;99.90;;;;;;6092532;23;20252;-75
2022/11/05 01:18:17;;;;;;;3.90;2.97;;;9.70;99.90;;;;;;6090908;23;20196;-75
2022/11/05 01:20:45;;;;;;;3.47;3.15;;;9.70;99.90;;;;;;6092215;23;20609;-75
2022/11/05 01:23:12;;;;;;;3.20;2.90;;;9.70;99.90;;;;;;6092174;23;20693;-75
2022/11/05 01:25:41;;;;;;;3.95;3.42;;;9.70;99.90;;;;;;6092373;23;20728;-75
2022/11/05 01:28:09;;;;;;;3.38;3.08;;;9.70;99.90;;;;;;6090622;23;20295;-75
2022/11/05 01:30:37;;;;;;;4.20;3.80;;;9.70;99.90;;;;;;6092289;23;20195;-75
2022/11/05 01:33:04;;;;;;;3.85;3.55;;;9.70;99.90;;;;;;6090691;23;20218;-76
2022/11/05 01:35:31;;;;;;;3.97;3.58;;;9.80;99.90;;;;;;6092125;23;20278;-75
2022/11/05 01:37:58;;;;;;;3.45;3.10;;;9.70;99.90;;;;;;6092375;23;20596;-76
2022/11/05 01:40:26;;;;;;;3.33;3.08;;;9.80;99.90;;;;;;6092367;23;20192;-75
2022/11/05 01:42:55;;;;;;;3.72;3.42;;;9.80;99.90;;;;;;6092092;23;20595;-75
2022/11/05 01:45:24;;;;;;;3.80;3.53;;;9.80;99.90;;;;;;6091950;23;20643;-75
2022/11/05 01:47:58;;;;;;;3.85;3.55;;;9.80;99.90;;;;;;6093449;23;20211;-75
2022/11/05 01:50:39;;;;;;;4.18;3.78;;;9.80;99.90;;;;;;6093098;23;20757;-75
2022/11/05 01:53:12;;;;;;;3.45;3.15;;;9.80;99.90;;;;;;6090626;23;20188;-76
2022/11/05 01:55:44;;;;;;;3.63;3.40;;;9.80;99.90;;;;;;6091980;23;20187;-75
2022/11/05 01:58:17;;;;;;;4.10;3.80;;;9.80;99.90;;;;;;6092012;23;20274;-75
2022/11/05 02:00:45;;;;;;;4.30;3.92;;;9.80;99.90;;;;;;6090497;23;20271;-75
2022/11/05 02:03:14;;;;;;;6.80;4.13;;;9.90;99.90;;;;;;6092180;23;20192;-75
2022/11/05 02:05:41;;;;;;;4.25;3.95;;;9.90;99.90;;;;;;6091909;23;20664;-75
2022/11/05 02:08:15;;;;;;;4.10;3.70;;;9.90;99.90;;;;;;6091884;23;20212;-75
2022/11/05 02:10:44;;;;;;;5.05;4.20;;;9.90;99.90;;;;;;6092558;23;20585;-75
2022/11/05 02:13:12;;;;;;;4.30;3.90;;;9.80;99.90;;;;;;6066712;23;20646;-75
2022/11/05 02:15:51;;;;;;;4.97;4.57;;;9.80;99.90;;;;;;6091639;23;20195;-75
2022/11/05 02:18:28;;;;;;;4.93;4.53;;;9.80;99.90;;;;;;6090173;23;20188;-75
2022/11/05 02:21:09;;;;;;;4.18;3.88;;;9.70;99.90;;;;;;6091349;23;20267;-75
2022/11/05 02:24:08;;;;;;;4.30;4.00;;;9.70;99.90;;;;;;6091846;23;20546;-75
2022/11/05 02:27:07;;;;;;;4.97;4.57;;;9.60;99.90;;;;;;6091558;23;20681;-75
2022/11/05 02:30:03;;;;;;;4.97;4.47;;;9.60;99.90;;;;;;6091264;23;20222;-75
2022/11/05 02:32:55;;;;;;;4.80;4.45;;;9.60;99.90;;;;;;6089996;23;20665;-75
2022/11/05 02:35:32;;;;;;;5.07;4.68;;;9.60;99.90;;;;;;6091683;23;20191;-75
2022/11/05 02:38:06;;;;;;;5.05;4.65;;;9.70;99.90;;;;;;6091510;23;20241;-75
2022/11/05 02:40:41;;;;;;;5.25;4.85;;;9.70;99.90;;;;;;6092556;23;20236;-75
2022/11/05 02:43:16;;;;;;;5.80;5.20;;;9.70;99.90;;;;;;6092679;23;20655;-75
2022/11/05 02:45:51;;;;;;;5.07;4.57;;;9.70;99.90;;;;;;6092982;23;20199;-75
2022/11/05 02:48:26;;;;;;;5.57;4.60;;;9.80;99.90;;;;;;6092528;23;20640;-75
2022/11/05 02:50:58;;;;;;;5.63;5.22;;;9.80;99.90;;;;;;6093089;23;20194;-75
2022/11/05 02:53:33;;;;;;;5.70;5.20;;;9.80;99.90;;;;;;6092821;23;20241;-75
2022/11/05 02:56:08;;;;;;;6.05;5.55;;;9.80;99.90;;;;;;6067439;23;20195;-75
2022/11/05 02:58:35;;;;;;;6.45;5.75;;;9.80;99.90;;;;;;6092704;23;20226;-76
2022/11/05 03:01:05;;;;;;;6.13;5.53;;;9.80;99.90;;;;;;6092547;23;20641;-75
2022/11/05 03:03:37;;;;;;;6.68;6.13;;;9.80;99.90;;;;;;6092848;23;20192;-75
2022/11/05 03:06:23;;;;;;;7.03;6.32;;;9.80;99.90;;;;;;6092936;23;20390;-76
2022/11/05 03:09:15;;;;;;;7.90;7.10;;;9.80;99.90;;;;;;6092740;23;20242;-75
2022/11/05 03:11:55;;;;;;;7.55;6.53;;;9.80;99.90;;;;;;6093027;23;20191;-76
2022/11/05 03:14:31;;;;;;;7.40;6.80;;;9.80;99.90;;;;;;6091215;23;20644;-75
2022/11/05 03:17:05;;;;;;;7.50;6.90;;;9.80;99.90;;;;;;6092904;23;20618;-75
2022/11/05 03:19:40;;;;;;;8.18;6.88;;;9.80;99.90;;;;;;6092983;23;20234;-75
2022/11/05 03:22:11;;;;;;;7.68;7.07;;;9.80;99.90;;;;;;6092476;23;20604;-76
2022/11/05 03:24:44;;;;;;;7.32;6.72;;;9.80;99.90;;;;;;6093010;23;20199;-75
2022/11/05 03:27:15;;;;;;;7.07;6.38;;;9.80;99.90;;;;;;6092353;23;20742;-75
2022/11/05 03:29:46;;;;;;;7.18;6.50;;;9.80;99.90;;;;;;6092735;23;20588;-75
2022/11/05 03:32:15;;;;;;;9.40;8.18;;;9.80;99.90;;;;;;6092257;23;20228;-75
2022/11/05 03:34:46;;;;;;;8.25;7.55;;;9.80;99.90;;;;;;6090728;23;20202;-75
2022/11/05 03:37:16;;;;;;;7.50;6.80;;;9.80;99.90;;;;;;6091755;23;20710;-75
2022/11/05 03:39:49;;;;;;;8.25;7.55;;;9.80;99.90;;;;;;6092500;23;20567;-75
2022/11/05 03:42:19;;;;;;;8.07;7.38;;;9.80;99.90;;;;;;6092622;23;20188;-75
2022/11/05 03:44:51;;;;;;;8.40;7.60;;;9.90;99.90;;;;;;6092409;23;20541;-75
2022/11/05 03:47:22;;;;;;;9.75;8.85;;;9.90;99.90;;;;;;6092561;23;20246;-75
2022/11/05 03:49:55;;;;;;;9.93;8.98;;;9.90;99.90;;;;;;6090870;23;20605;-75
2022/11/05 03:52:27;;;;;;;8.20;7.60;;;9.90;99.90;;;;;;6091570;23;20636;-75
2022/11/05 03:54:55;;;;;;;8.95;8.18;;;9.90;99.90;;;;;;6090930;23;20196;-75
2022/11/05 03:57:25;;;;;;;8.70;8.00;;;9.90;99.90;;;;;;6090844;23;20188;-75
2022/11/05 03:59:53;;;;;;;9.30;8.50;;;9.90;99.90;;;;;;6090746;23;20649;-75
2022/11/05 04:02:24;;;;;;;9.18;8.38;;;9.90;99.90;;;;;;6092459;23;20715;-75
2022/11/05 04:04:54;;;;;;;8.90;8.20;;;9.80;99.90;;;;;;6090941;23;20219;-75
2022/11/05 04:17:05;;;;;;;10.50;9.55;;;9.80;99.90;;;;;;6092692;23;20214;-75
2022/11/05 04:18:22;;;;;;;10.20;9.32;;;9.80;99.90;;;;;;6091237;23;20197;-75
2022/11/05 04:26:22;;;;;;;10.18;9.18;;;9.70;99.90;;;;;;6091104;23;20274;-75
2022/11/05 04:31:34;;;;;;;12.68;11.57;;;9.70;99.90;;;;;;6092518;23;20270;-75
2022/11/05 04:34:01;;;;;;;12.55;11.43;;;9.70;99.90;;;;;;6090944;23;20648;-75
2022/11/05 04:36:30;;;;;;;12.95;11.85;;;9.70;99.90;;;;;;6092279;23;20194;-75
2022/11/05 04:38:56;;;;;;;12.48;11.38;;;9.70;99.90;;;;;;6092161;23;20648;-75
2022/11/05 04:41:24;;;;;;;12.95;11.77;;;9.70;99.90;;;;;;6092583;23;20262;-75
2022/11/05 04:43:51;;;;;;;12.77;11.68;;;9.70;99.90;;;;;;6092091;23;20184;-75
2022/11/05 04:46:18;;;;;;;12.43;11.32;;;9.70;99.90;;;;;;6092506;23;20225;-75
2022/11/05 04:48:45;;;;;;;12.10;11.07;;;9.70;99.90;;;;;;6092548;23;20626;-75
2022/11/05 04:51:12;;;;;;;12.57;11.38;;;9.70;99.90;;;;;;6091367;23;20199;-75
2022/11/05 04:53:40;;;;;;;12.32;11.10;;;9.70;99.90;;;;;;6092149;23;20191;-75
2022/11/05 04:56:12;;;;;;;12.48;11.38;;;9.70;99.90;;;;;;6092495;23;20275;-75
2022/11/05 04:58:40;;;;;;;12.55;11.45;;;9.70;99.90;;;;;;6092462;23;20457;-75
2022/11/05 05:01:12;;;;;;;13.02;11.70;;;9.70;99.90;;;;;;6092715;23;20714;-75
2022/11/05 05:03:39;;;;;;;14.02;11.73;;;9.70;99.90;;;;;;6092039;23;20271;-75
2022/11/05 05:06:07;;;;;;;12.35;11.15;;;9.70;99.90;;;;;;6092009;23;20218;-75
2022/11/05 05:08:34;;;;;;;14.75;13.38;;;9.60;99.90;;;;;;6091911;23;20215;-75
2022/11/05 05:11:04;;;;;;;13.07;11.98;;;9.60;99.90;;;;;;6092033;23;20661;-75
2022/11/05 05:13:32;;;;;;;14.00;12.45;;;9.80;99.90;;;;;;6091000;23;20222;-75
2022/11/05 05:15:59;;;;;;;13.63;12.40;;;9.60;99.90;;;;;;6092288;23;20196;-75
2022/11/05 05:18:27;;;;;;;14.13;12.82;;;9.60;99.90;;;;;;6091818;23;20622;-75
2022/11/05 05:23:42;;;;;;;12.32;11.30;;;9.60;99.90;;;;;;6092082;23;20794;-75
2022/11/05 05:26:10;;;;;;;12.30;11.07;;;9.60;99.90;;;;;;6092041;23;20691;-75
2022/11/05 05:28:37;;;;;;;12.93;11.73;;;9.60;99.90;;;;;;6090059;23;20207;-75
2022/11/05 05:31:05;;;;;;;13.90;12.60;;;9.60;99.90;;;;;;6090366;23;20195;-75
2022/11/05 05:33:31;;;;;;;14.02;12.77;;;9.60;99.90;;;;;;6091742;23;20187;-75
2022/11/05 05:36:00;;;;;;;13.15;11.95;;;9.60;99.90;;;;;;6092119;23;20255;-75
2022/11/05 05:38:28;;;;;;;14.02;12.70;;;9.60;99.90;;;;;;6092148;23;20187;-75
2022/11/05 05:40:58;;;;;;;13.15;12.05;;;9.60;99.90;;;;;;6090413;23;20711;-75
2022/11/05 05:43:29;;;;;;;13.45;12.27;;;9.60;99.90;;;;;;6092057;23;20274;-75
2022/11/05 05:45:57;;;;;;;13.10;11.90;;;9.60;99.90;;;;;;6092447;23;20226;-75
2022/11/05 05:48:24;;;;;;;16.08;14.45;;;9.60;99.90;;;;;;6091636;23;20218;-75
2022/11/05 05:50:51;;;;;;;14.02;12.75;;;9.60;99.90;;;;;;6091930;23;20246;-75
2022/11/05 05:53:18;;;;;;;14.13;12.57;;;9.60;99.90;;;;;;6092013;23;20216;-75
2022/11/05 05:55:45;;;;;;;14.93;13.45;;;9.60;99.90;;;;;;6091787;23;20984;-75
2022/11/05 05:58:12;;;;;;;14.70;13.35;;;9.60;99.90;;;;;;6090284;23;20192;-75
2022/11/05 06:00:42;;;;;;;15.13;13.75;;;9.60;99.90;;;;;;6091714;23;20282;-75
2022/11/05 06:03:09;;;;;;;15.02;13.55;;;9.60;99.90;;;;;;6092694;23;20278;-75
2022/11/05 06:05:35;;;;;;;16.02;14.63;;;9.60;99.90;;;;;;6090650;23;20665;-74
2022/11/05 06:08:03;;;;;;;15.13;13.73;;;9.60;99.90;;;;;;6092059;23;20226;-75
2022/11/05 06:10:30;;;;;;;15.60;14.10;;;9.60;99.90;;;;;;6092188;23;20269;-74
2022/11/05 06:12:59;;;;;;;18.30;16.38;;;9.50;99.90;;;;;;6092033;23;20304;-74
2022/11/05 06:15:26;;;;;;;17.20;15.52;;;9.50;99.90;;;;;;6091329;23;20202;-74
2022/11/05 06:17:55;;;;;;;17.73;15.80;;;9.50;99.90;;;;;;6091918;23;20218;-75
2022/11/05 06:20:21;;;;;;;16.67;14.98;;;9.50;99.90;;;;;;6091750;23;20212;-74
2022/11/05 06:22:54;;;;;;;17.73;15.65;;;9.50;99.90;;;;;;6091959;23;20249;-75
2022/11/05 06:25:22;;;;;;;17.35;15.57;;;9.70;99.90;;;;;;6092057;23;20279;-75
2022/11/05 06:27:50;;;;;;;15.90;14.50;;;9.50;99.90;;;;;;6092232;23;20210;-75
2022/11/05 06:30:17;;;;;;;17.73;15.88;;;9.50;99.90;;;;;;6092262;23;20226;-75
2022/11/05 06:32:44;;;;;;;17.92;16.02;;;9.50;99.90;;;;;;6091514;23;20210;-75
2022/11/05 06:35:13;;;;;;;18.30;16.52;;;9.50;99.90;;;;;;6092067;23;20188;-75
2022/11/05 06:37:40;;;;;;;17.77;16.05;;;9.50;99.90;;;;;;6090211;23;20803;-75
2022/11/05 06:40:08;;;;;;;19.00;17.15;;;9.50;99.90;;;;;;6091553;23;20256;-75
2022/11/05 06:42:36;;;;;;;17.95;16.15;;;9.50;99.90;;;;;;6092279;23;20664;-75
2022/11/05 06:45:03;;;;;;;16.95;15.25;;;9.50;99.90;;;;;;6091918;23;20194;-75
2022/11/05 06:47:31;;;;;;;18.48;16.48;;;9.50;99.90;;;;;;6091934;23;20270;-75
2022/11/05 06:49:58;;;;;;;17.10;15.40;;;9.50;99.90;;;;;;6091588;23;20200;-75
2022/11/05 06:52:30;;;;;;;18.30;16.40;;;9.40;99.90;;;;;;6091485;23;20279;-76
2022/11/05 06:54:57;;;;;;;16.63;15.02;;;9.40;99.90;;;;;;6091779;23;20191;-75
2022/11/05 06:57:24;;;;;;;17.63;15.77;;;9.40;99.90;;;;;;6091918;23;20277;-74
2022/11/05 06:59:52;;;;;;;18.52;16.63;;;9.30;99.90;;;;;;6091411;23;20225;-75
2022/11/05 07:02:19;;;;;;;19.05;16.75;;;9.30;99.90;;;;;;6091597;23;20194;-75
2022/11/05 07:04:46;;;;;;;16.98;15.38;;;9.40;99.90;;;;;;6091832;23;20544;-75
2022/11/05 07:07:14;;;;;;;17.40;15.73;;;9.40;99.90;;;;;;6091892;23;20219;-75
2022/11/05 07:09:43;;;;;;;18.13;16.35;;;9.40;99.90;;;;;;6090082;23;20265;-75
2022/11/05 07:12:11;;;;;;;17.95;16.05;;;9.40;99.90;;;;;;6091892;23;20218;-75
2022/11/05 07:14:38;;;;;;;18.13;16.27;;;9.50;99.90;;;;;;6091328;23;20203;-75
2022/11/05 07:17:05;;;;;;;17.42;15.73;;;9.60;99.90;;;;;;6091194;23;20195;-75
2022/11/05 07:19:32;;;;;;;18.23;16.45;;;9.70;99.90;;;;;;6091382;23;20192;-75
2022/11/05 07:21:59;;;;;;;16.13;14.63;;;9.80;99.90;;;;;;6091362;23;20271;-76
2022/11/05 07:24:26;;;;;;;15.95;14.23;;;9.90;99.90;;;;;;6091630;23;20195;-75
2022/11/05 07:26:55;;;;;;;15.93;14.48;;;9.90;99.90;;;;;;6091641;23;20271;-75
2022/11/05 07:29:22;;;;;;;20.83;17.42;;;9.90;99.90;;;;;;6092467;23;20208;-75
2022/11/05 07:31:49;;;;;;;16.85;14.95;;;9.90;99.90;;;;;;6092209;23;20191;-75
2022/11/05 07:34:17;;;;;;;17.83;15.88;;;9.90;99.90;;;;;;6093058;23;20278;-75
2022/11/05 07:36:44;;;;;;;17.48;15.68;;;9.90;99.90;;;;;;6093298;23;20600;-75
2022/11/05 07:39:11;;;;;;;18.02;16.13;;;9.90;99.90;;;;;;6092623;23;20188;-75
2022/11/05 07:41:38;;;;;;;16.15;14.50;;;9.90;99.90;;;;;;6092771;23;20621;-75
2022/11/05 07:44:07;;;;;;;16.25;14.55;;;9.90;99.90;;;;;;6090849;23;20199;-75
2022/11/05 07:46:34;;;;;;;16.00;14.50;;;9.80;99.90;;;;;;6092482;23;20262;-75
2022/11/05 07:49:02;;;;;;;17.05;14.68;;;9.90;99.90;;;;;;6093012;23;20221;-75
2022/11/05 07:51:29;;;;;;;18.10;16.30;;;9.90;99.90;;;;;;6092982;23;20214;-75
2022/11/05 07:53:56;;;;;;;19.00;16.50;;;9.90;99.90;;;;;;6091472;23;20244;-75
2022/11/05 07:56:24;;;;;;;16.35;14.73;;;9.90;99.90;;;;;;6092699;23;20223;-75
2022/11/05 07:58:51;;;;;;;17.60;15.90;;;9.90;99.90;;;;;;6092548;23;20393;-75
2022/11/05 08:01:19;;;;;;;17.08;15.40;;;9.80;99.90;;;;;;6092668;23;20192;-75
2022/11/05 08:03:47;;;;;;;18.27;15.50;;;9.80;99.90;;;;;;6092636;23;20230;-75
2022/11/05 08:06:14;;;;;;;16.30;14.60;;;9.70;99.90;;;;;;6092924;23;20211;-75
2022/11/05 08:08:41;;;;;;;15.40;13.80;;;9.60;99.90;;;;;;6092575;23;20288;-75
2022/11/05 08:11:10;;;;;;;15.60;13.90;;;9.50;99.90;;;;;;6092761;23;20278;-75
2022/11/05 08:13:38;;;;;;;16.00;12.95;;;9.50;99.90;;;;;;6092448;23;20195;-75
2022/11/05 08:16:07;;;;;;;14.50;13.00;;;9.50;99.90;;;;;;6092583;23;20644;-75
2022/11/05 08:18:35;;;;;;;14.50;12.93;;;9.50;99.90;;;;;;6092781;23;20191;-75
2022/11/05 08:21:07;;;;;;;14.25;12.75;;;9.40;99.90;;;;;;6092637;23;20644;-75
2022/11/05 08:23:35;;;;;;;14.00;12.27;;;9.30;99.90;;;;;;6092596;23;20668;-75
2022/11/05 08:26:03;;;;;;;13.65;11.30;;;9.30;99.90;;;;;;6091125;23;20203;-75
2022/11/05 08:28:31;;;;;;;11.98;10.77;;;9.30;99.90;;;;;;6092200;23;20265;-75
2022/11/05 08:30:58;;;;;;;10.75;9.65;;;9.20;99.90;;;;;;6092798;23;20202;-75
2022/11/05 08:33:26;;;;;;;9.43;8.40;;;9.20;99.90;;;;;;6091199;23;20663;-75
2022/11/05 08:35:54;;;;;;;9.10;8.30;;;9.10;99.90;;;;;;6092820;23;20221;-75
2022/11/05 08:38:22;;;;;;;9.55;8.25;;;9.10;99.90;;;;;;6092292;23;20201;-75
2022/11/05 08:40:55;;;;;;;9.38;8.10;;;9.10;99.90;;;;;;6092129;23;20195;-75
2022/11/05 08:43:22;;;;;;;8.27;7.20;;;9.00;99.90;;;;;;6093066;23;20327;-75
2022/11/05 08:45:50;;;;;;;7.80;7.07;;;9.00;99.90;;;;;;6092061;23;20368;-75
2022/11/05 08:48:18;;;;;;;8.57;7.47;;;9.00;99.90;;;;;;6092132;23;20213;-75
2022/11/05 08:50:47;;;;;;;8.55;7.75;;;9.00;99.90;;;;;;6092622;23;20229;-75
2022/11/05 08:53:16;;;;;;;7.70;7.00;;;8.90;99.90;;;;;;6092288;23;20281;-75
2022/11/05 08:55:45;;;;;;;7.70;6.97;;;8.90;99.90;;;;;;6092570;23;20269;-75
2022/11/05 08:58:15;;;;;;;9.05;7.70;;;8.90;99.90;;;;;;6092810;23;20257;-75
2022/11/05 09:00:45;;;;;;;7.80;7.10;;;8.90;99.90;;;;;;6092162;23;20222;-75
2022/11/05 09:03:13;;;;;;;8.80;6.88;;;8.90;99.90;;;;;;6092692;23;20273;-74
2022/11/05 09:05:41;;;;;;;7.13;6.50;;;8.90;99.90;;;;;;6092420;23;20198;-75
2022/11/05 09:08:10;;;;;;;6.78;6.07;;;9.00;99.90;;;;;;6091024;23;20587;-75
2022/11/05 09:10:40;;;;;;;6.97;6.13;;;9.10;99.90;;;;;;6092847;23;20222;-75
2022/11/05 09:13:07;;;;;;;7.25;6.25;;;9.10;99.90;;;;;;6090813;23;20196;-75
2022/11/05 09:15:35;;;;;;;9.45;6.60;;;9.10;99.90;;;;;;6092226;23;20274;-75
2022/11/05 09:18:04;;;;;;;7.35;6.57;;;9.10;99.90;;;;;;6092437;23;20283;-74
2022/11/05 09:20:32;;;;;;;7.95;7.25;;;9.10;99.90;;;;;;6092972;23;20544;-75
2022/11/05 09:22:59;;;;;;;7.95;7.25;;;9.10;99.90;;;;;;6092740;23;20236;-75
2022/11/05 09:25:27;;;;;;;8.57;7.78;;;9.20;99.90;;;;;;6092524;23;20191;-74
2022/11/05 09:28:08;;;;;;;9.68;8.48;;;9.20;99.90;;;;;;6092116;23;20274;-75
2022/11/05 09:30:40;;;;;;;9.90;8.93;;;9.20;99.90;;;;;;6092731;23;20187;-75
2022/11/05 09:33:07;;;;;;;8.93;8.05;;;9.20;99.90;;;;;;6091144;23;20197;-75
2022/11/05 09:35:34;;;;;;;10.50;8.25;;;9.20;99.90;;;;;;6092986;23;20194;-75
2022/11/05 09:38:02;;;;;;;8.90;7.90;;;9.30;99.90;;;;;;6093054;23;20191;-75
2022/11/05 09:40:32;;;;;;;9.30;8.35;;;9.30;99.90;;;;;;6092599;23;20209;-75
2022/11/05 09:43:02;;;;;;;7.70;6.93;;;9.30;99.90;;;;;;6090333;23;20305;-75
2022/11/05 09:45:31;;;;;;;8.75;7.90;;;9.40;99.90;;;;;;6092599;23;20513;-75
2022/11/05 09:48:03;;;;;;;8.23;7.43;;;9.50;99.90;;;;;;6092450;23;20194;-75
2022/11/05 09:50:35;;;;;;;8.45;7.30;;;9.40;99.90;;;;;;6091289;23;20585;-75
2022/11/05 09:53:04;;;;;;;9.05;8.23;;;9.40;99.90;;;;;;6090462;23;20196;-75
2022/11/05 09:55:35;;;;;;;8.63;7.82;;;9.40;99.90;;;;;;6091992;23;20227;-75
2022/11/05 09:58:09;;;;;;;9.38;8.48;;;9.40;99.90;;;;;;6091847;23;20554;-75
2022/11/05 10:00:36;;;;;;;8.50;7.70;;;9.50;99.90;;;;;;6092106;23;20720;-75
2022/11/05 10:03:06;;;;;;;9.15;8.35;;;9.50;99.90;;;;;;6092295;23;20267;-75
2022/11/05 10:05:35;;;;;;;9.73;8.73;;;9.50;99.90;;;;;;6092016;23;20661;-75
2022/11/05 10:08:07;;;;;;;9.63;8.63;;;9.60;99.90;;;;;;6092049;23;20266;-75
2022/11/05 10:10:39;;;;;;;9.90;8.90;;;9.60;99.90;;;;;;6092981;23;20239;-75
2022/11/05 10:13:18;;;;;;;10.60;9.30;;;9.60;99.90;;;;;;6092862;23;20277;-74
2022/11/05 10:15:53;;;;;;;9.93;8.93;;;9.70;99.90;;;;;;6092656;23;20241;-74
2022/11/05 10:18:26;;;;;;;10.50;8.80;;;9.70;99.90;;;;;;6092668;23;20273;-74
2022/11/05 10:20:53;;;;;;;11.48;10.27;;;9.80;99.90;;;;;;6093033;23;20274;-75
2022/11/05 10:23:22;;;;;;;9.95;9.05;;;9.90;99.90;;;;;;6092165;23;20218;-75
2022/11/05 10:25:53;;;;;;;8.38;7.57;;;9.90;99.90;;;;;;6092486;23;20270;-74
2022/11/05 10:28:24;;;;;;;10.73;9.00;;;9.90;99.90;;;;;;6092988;23;20188;-74
2022/11/05 10:31:01;;;;;;;10.27;8.82;;;9.90;99.90;;;;;;6092325;23;20298;-74
2022/11/05 10:33:33;;;;;;;10.30;8.40;;;9.80;99.90;;;;;;6092949;23;20195;-74
2022/11/05 10:36:04;;;;;;;9.80;8.80;;;9.70;99.90;;;;;;6092948;23;20199;-74
2022/11/05 10:38:32;;;;;;;10.50;9.40;;;9.70;99.90;;;;;;6092803;23;20227;-75
2022/11/05 10:41:26;;;;;;;11.23;8.50;;;9.70;99.90;;;;;;6091315;23;20198;-75
2022/11/05 10:44:03;;;;;;;11.13;9.25;;;9.70;99.90;;;;;;6092569;23;20655;-74
2022/11/05 10:46:36;;;;;;;10.55;9.05;;;9.60;99.90;;;;;;6093077;23;20191;-74
2022/11/05 10:49:44;;;;;;;10.07;9.05;;;9.70;99.90;;;;;;6092704;23;20208;-75
2022/11/05 10:52:21;;;;;;;10.18;9.10;;;9.70;99.90;;;;;;6093038;23;20257;-75
2022/11/05 10:54:50;;;;;;;12.15;9.43;;;9.90;99.90;;;;;;6092963;23;20241;-74
2022/11/05 10:57:30;;;;;;;13.27;9.75;;;9.90;99.90;;;;;;6092496;23;20538;-74
2022/11/05 11:00:36;;;;;;;12.07;9.63;;;10.00;99.90;;;;;;6090779;23;20184;-74
2022/11/05 11:03:06;;;;;;;11.27;9.32;;;10.00;99.90;;;;;;6093979;23;20242;-75
2022/11/05 11:05:36;;;;;;;10.40;9.30;;;10.00;99.90;;;;;;6093916;23;20192;-74
2022/11/05 11:08:20;;;;;;;10.18;9.27;;;10.00;99.90;;;;;;6094032;23;20196;-75
2022/11/05 11:10:52;;;;;;;11.43;9.90;;;10.30;99.90;;;;;;6091582;23;20665;-75
2022/11/05 11:13:21;;;;;;;12.05;10.15;;;10.20;99.90;;;;;;6093032;23;20199;-74
2022/11/05 11:15:50;;;;;;;12.15;10.95;;;10.30;99.90;;;;;;6093081;23;20188;-74
2022/11/05 11:18:30;;;;;;;11.63;10.52;;;10.40;99.90;;;;;;6093027;23;20199;-75
2022/11/05 11:21:07;;;;;;;11.13;9.60;;;10.40;99.90;;;;;;6092953;23;20277;-75
2022/11/05 11:23:38;;;;;;;11.48;10.38;;;10.50;99.90;;;;;;6092530;23;20187;-74
2022/11/05 11:26:07;;;;;;;12.77;10.77;;;10.50;99.90;;;;;;6093051;23;20187;-75
2022/11/05 11:28:37;;;;;;;11.40;9.73;;;10.60;99.90;;;;;;6092872;23;20199;-75
2022/11/05 11:31:11;;;;;;;10.95;9.82;;;10.60;99.90;;;;;;6091263;23;20574;-75
2022/11/05 11:33:41;;;;;;;12.80;10.23;;;10.50;99.90;;;;;;6092946;23;20202;-75
2022/11/05 11:36:11;;;;;;;10.32;9.23;;;10.50;99.90;;;;;;6093583;23;20199;-75
2022/11/05 11:38:39;;;;;;;10.20;9.00;;;10.60;99.90;;;;;;6092891;23;20287;-75
2022/11/05 11:41:22;;;;;;;9.25;8.27;;;10.70;99.90;;;;;;6092953;23;20218;-75
2022/11/05 11:43:55;;;;;;;9.55;8.55;;;10.80;99.90;;;;;;6091291;23;20267;-75
2022/11/05 11:46:24;;;;;;;8.13;7.30;;;11.00;99.90;;;;;;6091660;23;20609;-75
2022/11/05 11:48:51;;;;;;;8.60;7.70;;;11.20;99.90;;;;;;6093201;23;20220;-75
2022/11/05 11:51:28;;;;;;;9.48;8.50;;;11.30;99.90;;;;;;6091177;23;20263;-75
2022/11/05 11:53:57;;;;;;;8.85;8.00;;;11.40;99.90;;;;;;6093120;23;20613;-75
2022/11/05 11:56:25;;;;;;;8.50;7.65;;;11.50;99.90;;;;;;6092919;23;20267;-75
2022/11/05 11:58:53;;;;;;;8.07;7.28;;;11.60;99.90;;;;;;6093291;23;20192;-75
2022/11/05 12:01:50;;;;;;;7.63;6.95;;;11.70;99.90;;;;;;6091613;23;20630;-75
2022/11/05 12:04:45;;;;;;;7.50;6.80;;;12.00;99.90;;;;;;6093199;23;20189;-75
2022/11/05 12:07:22;;;;;;;8.73;7.72;;;12.10;99.90;;;;;;6093144;23;20428;-75
2022/11/05 12:10:00;;;;;;;10.30;8.13;;;12.20;99.90;;;;;;6093155;23;20214;-75
2022/11/05 12:12:35;;;;;;;8.00;7.20;;;12.20;99.90;;;;;;6092518;23;20454;-75
2022/11/05 12:15:15;;;;;;;8.77;7.97;;;12.20;99.90;;;;;;6092863;23;20424;-75
2022/11/05 12:17:52;;;;;;;9.07;8.17;;;12.20;99.90;;;;;;6091715;23;20517;-75
2022/11/05 12:20:29;;;;;;;8.65;7.75;;;12.20;99.90;;;;;;6093226;23;20414;-75
2022/11/05 12:23:35;;;;;;;8.93;8.02;;;12.20;99.90;;;;;;6093313;23;20273;-75
2022/11/05 12:26:11;;;;;;;8.03;7.23;;;12.30;99.90;;;;;;5981035;23;20269;-75
2022/11/05 12:28:54;;;;;;;8.10;7.40;;;12.60;99.90;;;;;;6083575;23;20439;-76
2022/11/05 12:31:31;;;;;;;7.10;6.50;;;12.80;99.90;;;;;;6093067;23;20464;-75
2022/11/05 12:34:17;;;;;;;8.67;7.70;;;13.10;99.90;;;;;;6092873;23;21064;-76
2022/11/05 12:37:04;;;;;;;7.43;6.73;;;13.20;99.90;;;;;;6091496;23;20420;-75
2022/11/05 12:39:45;;;;;;;7.63;6.97;;;13.20;99.90;;;;;;6091193;23;20433;-75
2022/11/05 12:42:28;;;;;;;7.93;7.23;;;13.00;99.90;;;;;;6092675;23;20842;-75
2022/11/05 12:45:01;;;;;;;7.20;6.50;;;12.80;99.90;;;;;;6092453;23;20451;-75
2022/11/05 12:47:48;;;;;;;6.85;6.15;;;12.70;99.90;;;;;;6092740;23;20423;-75
2022/11/05 12:50:25;;;;;;;6.00;5.50;;;12.50;99.90;;;;;;6092699;23;20220;-75
2022/11/05 12:53:13;;;;;;;7.43;6.65;;;12.30;99.90;;;;;;6092331;23;20192;-75
2022/11/05 12:55:44;;;;;;;9.00;6.55;;;12.10;99.90;;;;;;6090899;23;20212;-75
2022/11/05 12:58:15;;;;;;;6.65;6.10;;;12.00;99.90;;;;;;6091443;23;20192;-75
2022/11/05 13:00:47;;;;;;;7.07;6.45;;;11.80;99.90;;;;;;6092947;23;20270;-75
2022/11/05 13:03:27;;;;;;;7.10;6.40;;;11.80;99.90;;;;;;6092804;23;20600;-75
2022/11/05 13:06:02;;;;;;;7.55;6.88;;;11.70;99.90;;;;;;6092911;23;20191;-74
2022/11/05 13:08:36;;;;;;;7.03;6.35;;;11.60;99.90;;;;;;6091312;23;20245;-74
2022/11/05 13:11:18;;;;;;;6.78;6.18;;;11.60;99.90;;;;;;6092628;23;20220;-75
2022/11/05 13:13:52;;;;;;;7.40;6.70;;;11.50;99.90;;;;;;6092706;23;20669;-75
2022/11/05 13:16:25;;;;;;;6.95;6.22;;;11.50;99.90;;;;;;6092671;23;20227;-74
2022/11/05 13:18:56;;;;;;;6.90;6.30;;;11.50;99.90;;;;;;6091555;23;20188;-74
2022/11/05 13:21:28;;;;;;;5.78;5.18;;;11.40;99.90;;;;;;6092608;23;20278;-75
2022/11/05 13:24:03;;;;;;;5.55;5.05;;;11.40;99.90;;;;;;6092585;23;20203;-74
2022/11/05 13:26:37;;;;;;;5.68;5.18;;;11.40;99.90;;;;;;6092891;23;20249;-74
2022/11/05 13:29:10;;;;;;;5.85;5.03;;;11.40;99.90;;;;;;6092741;23;20217;-74
2022/11/05 13:31:43;;;;;;;5.40;4.50;;;11.40;99.90;;;;;;6092454;23;20211;-74
2022/11/05 13:34:12;;;;;;;5.50;4.95;;;11.40;99.90;;;;;;6092653;23;20712;-75
2022/11/05 13:39:38;;;;;;;6.18;4.90;;;11.30;99.90;;;;;;6092584;23;20223;-74
2022/11/05 13:42:38;;;;;;;5.82;4.55;;;11.20;99.90;;;;;;6092413;23;20192;-74
2022/11/05 13:45:29;;;;;;;6.15;4.53;;;11.20;99.90;;;;;;6092280;23;20192;-74
2022/11/05 13:48:14;;;;;;;5.28;4.57;;;11.10;99.90;;;;;;6090825;23;20268;-74
2022/11/05 13:51:08;;;;;;;4.95;4.43;;;11.10;99.90;;;;;;6092220;23;20665;-75
2022/11/05 13:54:04;;;;;;;4.80;4.40;;;11.00;99.90;;;;;;6092211;23;20275;-74
2022/11/05 13:56:44;;;;;;;5.05;3.92;;;10.90;99.90;;;;;;6090621;23;20219;-74